Time;durP1;ratioP1;P1;durP2;ratioP2;P2;SDS_P1;SDS_P2;PMS_P1;PMS_P2;Temp;Humidity;BMP_temperature;BMP_pressure;BME280_temperature;BME280_humidity;BME280_pressure;Samples;Min_cycle;Max_cycle;Signal;HPM_P1;HPM_P2
2021/10/21 00:00:49;;;;;;;9.65;5.80;;;;;;;9.92;100.00;95605.13;5041609;28;20048;-66
2021/10/21 00:03:15;;;;;;;8.32;5.50;;;;;;;9.99;100.00;95596.13;5036734;28;20048;-65
2021/10/21 00:05:40;;;;;;;10.07;5.65;;;;;;;9.99;100.00;95600.81;5042340;28;20037;-64
2021/10/21 00:08:06;;;;;;;9.15;5.07;;;;;;;10.04;100.00;95605.91;5037181;28;20037;-64
2021/10/21 00:10:31;;;;;;;7.50;5.05;;;;;;;10.19;100.00;95602.03;5042217;28;20044;-64
2021/10/21 00:12:57;;;;;;;9.93;5.40;;;;;;;10.36;100.00;95602.44;5023721;28;20176;-65
2021/10/21 00:15:22;;;;;;;8.63;4.85;;;;;;;10.42;100.00;95600.84;5053426;28;20482;-66
2021/10/21 00:17:47;;;;;;;8.15;5.25;;;;;;;10.48;100.00;95615.72;5041118;28;20049;-64
2021/10/21 00:20:13;;;;;;;11.73;5.80;;;;;;;10.43;100.00;95600.47;5035062;28;20048;-65
2021/10/21 00:22:38;;;;;;;7.90;5.25;;;;;;;10.43;100.00;95594.22;5041014;28;20041;-66
2021/10/21 00:25:06;;;;;;;7.80;5.25;;;;;;;10.38;100.00;95594.63;5009221;28;20491;-63
2021/10/21 00:27:31;;;;;;;9.20;5.82;;;;;;;10.29;100.00;95579.31;5022332;28;20510;-66
2021/10/21 00:29:57;;;;;;;8.18;4.93;;;;;;;9.94;100.00;95574.66;5022014;28;20130;-65
2021/10/21 00:32:22;;;;;;;8.40;5.53;;;;;;;9.87;100.00;95582.84;4998398;28;20826;-65
2021/10/21 00:34:48;;;;;;;10.25;6.28;;;;;;;9.83;100.00;95565.63;5021930;28;20048;-65
2021/10/21 00:37:13;;;;;;;9.20;6.20;;;;;;;9.84;100.00;95562.50;5016801;28;20103;-65
2021/10/21 00:39:39;;;;;;;11.00;6.35;;;;;;;9.84;100.00;95548.06;5021626;28;20049;-64
2021/10/21 00:42:04;;;;;;;7.82;5.20;;;;;;;10.00;100.00;95532.03;5015882;28;20045;-68
2021/10/21 00:44:30;;;;;;;8.73;5.45;;;;;;;10.08;100.00;95538.28;5018941;28;20037;-65
2021/10/21 00:46:57;;;;;;;10.63;5.75;;;;;;;10.19;100.00;95536.34;5019966;28;20173;-61
2021/10/21 00:49:23;;;;;;;7.63;5.18;;;;;;;10.26;100.00;95525.41;5011274;28;20076;-63
2021/10/21 00:51:49;;;;;;;8.98;6.05;;;;;;;10.21;100.00;95509.38;5003375;28;20049;-66
2021/10/21 00:54:17;;;;;;;11.07;5.57;;;;;;;10.06;100.00;95483.97;5016195;28;20103;-65
2021/10/21 00:56:45;;;;;;;10.77;6.22;;;;;;;9.82;100.00;95465.63;5021247;28;20053;-63
2021/10/21 00:59:12;;;;;;;10.68;5.80;;;;;;;9.62;100.00;95459.78;5016339;28;20077;-65
2021/10/21 01:01:38;;;;;;;8.10;5.60;;;;;;;9.70;100.00;95473.03;5021175;28;20088;-62
2021/10/21 01:04:03;;;;;;;10.48;5.90;;;;;;;9.86;100.00;95491.03;5019170;28;20433;-66
2021/10/21 01:06:29;;;;;;;9.20;6.18;;;;;;;10.16;100.00;95490.63;5019508;28;20037;-64
2021/10/21 01:08:55;;;;;;;10.65;6.03;;;;;;;10.24;100.00;95522.25;5018997;28;20053;-62
2021/10/21 01:11:21;;;;;;;12.52;5.93;;;;;;;10.36;100.00;95558.66;5015208;28;20045;-63
2021/10/21 01:13:47;;;;;;;7.38;5.03;;;;;;;10.44;100.00;95593.84;5028399;28;20151;-63
2021/10/21 01:16:14;;;;;;;7.95;5.30;;;;;;;10.52;100.00;95570.72;5012874;28;20049;-62
2021/10/21 01:18:41;;;;;;;8.20;5.78;;;;;;;10.49;100.00;95579.72;5019739;28;20141;-61
2021/10/21 01:21:08;;;;;;;9.32;5.65;;;;;;;10.45;100.00;95539.84;5019726;28;20444;-61
2021/10/21 01:23:34;;;;;;;9.00;5.80;;;;;;;10.75;100.00;95514.75;5024323;28;20040;-63
2021/10/21 01:26:00;;;;;;;9.20;5.38;;;;;;;10.61;100.00;95466.28;5026118;28;20091;-60
2021/10/21 01:28:26;;;;;;;8.02;6.07;;;;;;;10.19;100.00;95437.03;5015496;28;20446;-62
2021/10/21 01:30:51;;;;;;;9.25;6.40;;;;;;;10.09;100.00;95420.25;5020254;28;20072;-62
2021/10/21 01:33:17;;;;;;;11.05;7.30;;;;;;;9.97;100.00;95404.28;4994935;28;20040;-62
2021/10/21 01:35:43;;;;;;;11.73;6.72;;;;;;;10.04;100.00;95400.75;5009220;28;20063;-61
2021/10/21 01:38:08;;;;;;;10.55;6.43;;;;;;;10.04;100.00;95396.03;5015064;28;20068;-63
2021/10/21 01:40:34;;;;;;;12.70;5.95;;;;;;;10.18;100.00;95408.91;5035065;28;20045;-62
2021/10/21 01:42:59;;;;;;;9.95;6.03;;;;;;;10.37;100.00;95454.25;5032995;28;20041;-62
2021/10/21 01:45:29;;;;;;;11.20;5.90;;;;;;;10.56;100.00;95518.72;5014790;28;20045;-61
2021/10/21 01:47:55;;;;;;;11.45;6.18;;;;;;;10.67;100.00;95546.06;5024435;28;20505;-61
2021/10/21 01:50:20;;;;;;;10.23;5.05;;;;;;;10.85;100.00;95532.31;5016170;28;20049;-62
2021/10/21 01:52:46;;;;;;;10.02;5.07;;;;;;;11.23;100.00;95518.84;5018953;28;20056;-60
2021/10/21 01:55:13;;;;;;;11.80;4.57;;;;;;;11.37;100.00;95471.38;5016495;28;20435;-60
2021/10/21 01:57:39;;;;;;;8.73;4.75;;;;;;;11.72;100.00;95458.59;5019952;28;21801;-61
2021/10/21 02:00:11;;;;;;;10.02;4.97;;;;;;;11.83;100.00;95467.53;5011797;28;20072;-62
2021/10/21 02:02:36;;;;;;;13.40;5.15;;;;;;;11.92;100.00;95484.34;5019137;28;20045;-59
2021/10/21 02:05:02;;;;;;;8.98;5.45;;;;;;;11.93;100.00;95513.31;5022228;28;20530;-63
2021/10/21 02:07:27;;;;;;;9.73;5.60;;;;;;;11.96;100.00;95525.47;5018726;28;20048;-62
2021/10/21 02:09:53;;;;;;;8.07;5.25;;;;;;;12.02;100.00;95534.81;5018897;28;20041;-63
2021/10/21 02:12:19;;;;;;;9.30;5.30;;;;;;;11.98;100.00;95545.03;5014186;28;20048;-62
2021/10/21 02:14:44;;;;;;;9.63;5.43;;;;;;;12.19;100.00;95527.59;4996310;28;20128;-61
2021/10/21 02:17:09;;;;;;;9.63;5.28;;;;;;;12.18;100.00;95493.13;5011487;28;20072;-62
2021/10/21 02:19:35;;;;;;;8.90;5.53;;;;;;;12.08;100.00;95488.50;5003453;28;20060;-63
2021/10/21 02:22:02;;;;;;;11.32;5.47;;;;;;;12.07;100.00;95478.72;5018478;28;20387;-63
2021/10/21 02:24:28;;;;;;;12.55;6.03;;;;;;;12.12;100.00;95481.00;5017972;28;20037;-62
2021/10/21 02:26:54;;;;;;;9.20;5.70;;;;;;;12.07;100.00;95520.66;5017699;28;20043;-63
2021/10/21 02:29:19;;;;;;;12.85;6.75;;;;;;;12.23;100.00;95588.75;5014096;28;20056;-63
2021/10/21 02:31:45;;;;;;;8.07;5.30;;;;;;;12.23;100.00;95561.31;5015239;28;20692;-63
2021/10/21 02:34:10;;;;;;;10.57;5.03;;;;;;;12.29;100.00;95518.50;5018865;28;20037;-62
2021/10/21 02:36:36;;;;;;;8.98;5.25;;;;;;;12.37;100.00;95506.28;5016886;28;20461;-62
2021/10/21 02:39:02;;;;;;;8.65;5.07;;;;;;;12.38;100.00;95502.31;5018762;28;20137;-62
2021/10/21 02:41:27;;;;;;;9.93;5.78;;;;;;;12.38;100.00;95509.78;5015654;28;20041;-63
2021/10/21 02:43:53;;;;;;;8.05;5.50;;;;;;;12.28;100.00;95546.34;5017600;28;20038;-62
2021/10/21 02:46:18;;;;;;;11.75;5.70;;;;;;;12.37;100.00;95576.84;5010497;28;20482;-62
2021/10/21 02:48:44;;;;;;;10.50;5.88;;;;;;;12.22;100.00;95609.91;5024709;28;20405;-60
2021/10/21 02:51:09;;;;;;;11.43;5.53;;;;;;;12.13;100.00;95603.34;5012576;28;20383;-61
2021/10/21 02:53:35;;;;;;;11.23;6.70;;;;;;;12.17;100.00;95596.66;5020561;28;20443;-63
2021/10/21 02:56:01;;;;;;;11.23;6.32;;;;;;;12.19;100.00;95569.56;5022011;28;20060;-62
2021/10/21 02:58:26;;;;;;;12.30;6.57;;;;;;;12.22;100.00;95587.97;4994122;28;20059;-63
2021/10/21 03:00:52;;;;;;;12.38;6.80;;;;;;;12.32;100.00;95604.78;5017570;28;20052;-61
2021/10/21 03:03:17;;;;;;;13.27;6.88;;;;;;;12.52;100.00;95665.41;5016355;28;20049;-61
2021/10/21 03:05:43;;;;;;;12.90;6.65;;;;;;;12.59;100.00;95651.63;5020048;28;20048;-64
2021/10/21 03:08:08;;;;;;;10.95;6.53;;;;;;;12.55;100.00;95626.94;5015200;28;20045;-62
2021/10/21 03:10:34;;;;;;;9.52;5.65;;;;;;;12.88;100.00;95621.91;5012531;28;20046;-63
2021/10/21 03:12:59;;;;;;;11.40;5.70;;;;;;;12.71;100.00;95618.16;5018520;28;20040;-63
2021/10/21 03:15:26;;;;;;;10.23;6.10;;;;;;;12.67;100.00;95644.09;5010926;28;20049;-63
2021/10/21 03:17:52;;;;;;;15.38;6.63;;;;;;;12.65;100.00;95624.50;5012590;28;20136;-65
2021/10/21 03:20:17;;;;;;;9.80;5.57;;;;;;;12.80;100.00;95654.19;5012636;28;20132;-63
2021/10/21 03:22:43;;;;;;;10.63;5.28;;;;;;;12.88;100.00;95613.69;4996338;28;20739;-61
2021/10/21 03:25:10;;;;;;;7.03;4.53;;;;;;;13.02;100.00;95632.00;5014213;28;20403;-64
2021/10/21 03:27:37;;;;;;;12.55;5.38;;;;;;;12.98;100.00;95628.47;5019544;28;20402;-62
2021/10/21 03:30:05;;;;;;;9.18;5.13;;;;;;;12.91;100.00;95629.34;5013916;28;20029;-63
2021/10/21 03:32:31;;;;;;;10.35;4.95;;;;;;;12.92;100.00;95625.41;5013490;28;20482;-63
2021/10/21 03:34:56;;;;;;;6.45;4.60;;;;;;;12.92;100.00;95628.16;5013897;28;20048;-61
2021/10/21 03:37:22;;;;;;;10.55;4.55;;;;;;;13.02;100.00;95632.00;5009979;28;20057;-61
2021/10/21 03:39:50;;;;;;;6.53;4.20;;;;;;;13.03;100.00;95614.31;5019372;28;20653;-59
2021/10/21 03:42:19;;;;;;;6.68;4.30;;;;;;;13.07;100.00;95620.56;5013062;28;20061;-63
2021/10/21 03:44:45;;;;;;;8.68;4.30;;;;;;;13.04;100.00;95624.13;5018715;28;20448;-63
2021/10/21 03:47:10;;;;;;;6.28;3.97;;;;;;;12.98;100.00;95633.97;5010812;28;20041;-61
2021/10/21 03:49:37;;;;;;;8.57;4.35;;;;;;;13.10;100.00;95643.69;5021213;28;20041;-61
2021/10/21 03:52:04;;;;;;;6.60;3.78;;;;;;;13.11;100.00;95648.78;5019813;28;20048;-63
2021/10/21 03:54:30;;;;;;;8.80;4.30;;;;;;;13.17;100.00;95635.38;5021111;28;20045;-62
2021/10/21 03:56:55;;;;;;;7.00;4.20;;;;;;;13.17;100.00;95633.38;5022002;28;20041;-60
2021/10/21 03:59:21;;;;;;;17.92;11.43;;;;;;;13.28;100.00;95611.28;5022231;28;20132;-62
2021/10/21 04:01:47;;;;;;;8.32;4.45;;;;;;;13.49;100.00;95610.28;5028835;28;20522;-61
2021/10/21 04:04:12;;;;;;;6.57;3.80;;;;;;;13.46;100.00;95611.09;5022027;28;20041;-61
2021/10/21 04:06:38;;;;;;;6.28;3.75;;;;;;;13.42;100.00;95620.59;5026899;28;20037;-62
2021/10/21 04:09:03;;;;;;;5.25;3.35;;;;;;;13.35;100.00;95624.97;5016863;28;20165;-65
2021/10/21 04:11:29;;;;;;;8.23;3.72;;;;;;;13.48;100.00;95618.94;5021334;28;20140;-63
2021/10/21 04:13:54;;;;;;;5.38;3.25;;;;;;;13.67;100.00;95623.81;5024072;28;20136;-62
2021/10/21 04:16:20;;;;;;;5.82;3.25;;;;;;;13.91;100.00;95621.91;5015151;28;20055;-58
2021/10/21 04:18:45;;;;;;;6.05;3.13;;;;;;;14.05;100.00;95628.41;5008149;28;20136;-63
2021/10/21 04:21:12;;;;;;;5.05;2.83;;;;;;;13.96;100.00;95635.19;5023164;28;20041;-63
2021/10/21 04:23:37;;;;;;;6.13;1.90;;;;;;;14.07;100.00;95640.56;5022942;28;20034;-63
2021/10/21 04:26:03;;;;;;;8.80;2.10;;;;;;;13.92;100.00;95639.97;5022517;28;20048;-65
2021/10/21 04:28:28;;;;;;;3.55;2.15;;;;;;;14.01;100.00;95671.72;5019346;28;20052;-63
2021/10/21 04:30:53;;;;;;;2.42;1.52;;;;;;;13.63;100.00;95649.78;5018342;28;20103;-64
2021/10/21 04:33:19;;;;;;;3.70;1.40;;;;;;;13.56;100.00;95670.72;5013148;28;20120;-64
2021/10/21 04:35:44;;;;;;;3.20;1.40;;;;;;;13.42;100.00;95706.63;5027281;28;20136;-64
2021/10/21 04:38:10;;;;;;;5.53;1.30;;;;;;;13.27;100.00;95702.41;5022257;28;20049;-64
2021/10/21 04:40:35;;;;;;;3.78;1.75;;;;;;;13.12;100.00;95707.28;5023710;28;20117;-64
2021/10/21 04:43:01;;;;;;;2.38;1.35;;;;;;;13.00;100.00;95734.09;5018859;28;20152;-63
2021/10/21 04:45:27;;;;;;;2.97;1.52;;;;;;;12.85;100.00;95746.38;5015394;28;20054;-63
2021/10/21 04:48:01;;;;;;;1.85;1.05;;;;;;;12.82;100.00;95772.72;5022059;28;20044;-64
2021/10/21 04:50:27;;;;;;;3.47;1.35;;;;;;;12.74;100.00;95786.91;5016436;28;20049;-63
2021/10/21 04:52:53;;;;;;;3.53;1.67;;;;;;;12.70;100.00;95799.88;5026382;28;20406;-61
2021/10/21 04:55:23;;;;;;;6.47;1.70;;;;;;;12.51;100.00;95815.69;5019556;28;20092;-64
2021/10/21 04:57:50;;;;;;;3.70;1.98;;;;;;;12.24;100.00;95835.44;5021900;28;20049;-63
2021/10/21 05:00:16;;;;;;;5.72;2.10;;;;;;;12.10;100.00;95821.78;5013033;28;20049;-65
2021/10/21 05:02:42;;;;;;;4.80;1.40;;;;;;;11.99;100.00;95771.59;5016122;28;20045;-65
2021/10/21 05:05:08;;;;;;;2.63;0.82;;;;;;;11.89;100.00;95825.31;5014136;28;20379;-64
2021/10/21 05:07:34;;;;;;;3.35;0.85;;;;;;;11.72;100.00;95837.13;5018954;28;20179;-63
2021/10/21 05:09:59;;;;;;;1.63;0.80;;;;;;;11.65;100.00;95826.97;5027671;28;20496;-63
2021/10/21 05:12:25;;;;;;;1.30;0.70;;;;;;;11.58;100.00;95824.22;4993294;28;20045;-64
2021/10/21 05:14:52;;;;;;;2.08;0.68;;;;;;;11.56;100.00;95834.78;5021500;28;20037;-65
2021/10/21 05:17:18;;;;;;;1.90;0.50;;;;;;;11.49;100.00;95843.81;5006380;28;20042;-65
2021/10/21 05:19:43;;;;;;;4.57;0.52;;;;;;;11.51;100.00;95849.69;5010434;28;20049;-62
2021/10/21 05:22:09;;;;;;;1.15;0.50;;;;;;;11.46;100.00;95850.88;5015861;28;20070;-63
2021/10/21 05:24:34;;;;;;;1.73;0.57;;;;;;;11.41;100.00;95853.22;5019988;28;20041;-64
2021/10/21 05:26:59;;;;;;;2.97;0.73;;;;;;;11.46;100.00;95850.09;5017217;28;20045;-66
2021/10/21 05:29:26;;;;;;;2.45;0.73;;;;;;;11.49;100.00;95849.31;5014402;28;20118;-64
2021/10/21 05:31:52;;;;;;;2.88;0.70;;;;;;;11.57;100.00;95852.81;5017203;28;20091;-65
2021/10/21 05:34:18;;;;;;;2.45;0.60;;;;;;;11.51;100.00;95863.41;5009461;28;20474;-64
2021/10/21 05:36:44;;;;;;;1.67;0.60;;;;;;;11.56;100.00;95882.22;5021148;28;20121;-65
2021/10/21 05:39:09;;;;;;;2.03;0.80;;;;;;;11.62;100.00;95890.81;5014510;28;20045;-64
2021/10/21 05:41:34;;;;;;;4.03;0.82;;;;;;;11.72;98.21;95890.03;5014935;28;20045;-65
2021/10/21 05:44:00;;;;;;;2.78;1.00;;;;;;;11.68;99.70;95908.44;5025891;28;20056;-65
2021/10/21 05:46:25;;;;;;;2.75;0.70;;;;;;;11.65;98.48;95901.78;5015334;28;20041;-66
2021/10/21 05:48:51;;;;;;;1.30;0.60;;;;;;;11.66;98.45;95919.03;5020323;28;20049;-61
2021/10/21 05:51:16;;;;;;;2.80;0.60;;;;;;;11.62;98.65;95926.47;5014878;28;20359;-67
2021/10/21 05:53:43;;;;;;;7.13;0.70;;;;;;;11.62;98.00;95943.72;5027647;28;20046;-63
2021/10/21 05:56:08;;;;;;;1.67;0.60;;;;;;;11.62;94.84;95959.38;5012923;28;20049;-63
2021/10/21 05:58:34;;;;;;;3.38;0.85;;;;;;;11.60;95.04;95956.25;5028019;28;20048;-64
2021/10/21 06:00:59;;;;;;;1.95;0.63;;;;;;;11.62;95.79;95951.94;5026320;28;20064;-63
2021/10/21 06:03:26;;;;;;;4.68;1.65;;;;;;;11.54;95.72;95961.34;5013886;28;20056;-63
2021/10/21 06:05:52;;;;;;;3.97;0.60;;;;;;;11.61;95.89;95938.63;5014632;28;20104;-63
2021/10/21 06:08:18;;;;;;;5.88;0.73;;;;;;;11.57;95.17;95962.53;5023516;28;20374;-61
2021/10/21 06:10:43;;;;;;;2.88;0.65;;;;;;;11.54;93.62;95966.03;5034672;28;20045;-61
2021/10/21 06:13:09;;;;;;;4.22;0.73;;;;;;;11.56;92.38;95985.63;5023161;28;20139;-63
2021/10/21 06:15:34;;;;;;;5.30;0.77;;;;;;;11.52;90.78;95985.63;5025734;28;20045;-63
2021/10/21 06:18:03;;;;;;;10.10;1.13;;;;;;;11.51;90.77;95981.31;5020530;28;20184;-64
2021/10/21 06:20:29;;;;;;;3.97;0.98;;;;;;;11.54;90.14;95999.75;5018244;28;20048;-64
2021/10/21 06:22:55;;;;;;;5.80;0.80;;;;;;;11.51;88.54;96010.72;5022818;28;20084;-63
2021/10/21 06:25:21;;;;;;;7.45;0.88;;;;;;;11.52;88.26;96029.50;5014256;28;20045;-63
2021/10/21 06:27:47;;;;;;;5.72;1.25;;;;;;;11.55;86.72;96020.50;5005697;28;20064;-63
2021/10/21 06:30:12;;;;;;;6.60;1.10;;;;;;;11.56;86.84;96018.53;5022822;28;20048;-64
2021/10/21 06:32:38;;;;;;;6.28;0.88;;;;;;;11.54;86.94;96037.34;5017799;28;20053;-65
2021/10/21 06:35:04;;;;;;;6.90;0.80;;;;;;;11.55;87.31;96039.69;5015652;28;20495;-62
2021/10/21 06:37:30;;;;;;;3.95;0.75;;;;;;;11.53;87.28;96033.03;5027121;28;20044;-64
2021/10/21 06:39:56;;;;;;;2.78;0.73;;;;;;;11.55;87.64;96036.94;5034169;28;20041;-64
2021/10/21 06:42:22;;;;;;;4.78;0.77;;;;;;;11.56;88.49;96057.72;5029245;28;20678;-64
2021/10/21 06:44:48;;;;;;;5.90;1.17;;;;;;;11.75;87.30;96048.34;5031249;28;20135;-64
2021/10/21 06:47:14;;;;;;;5.47;0.75;;;;;;;11.78;86.96;96066.00;5014482;28;20645;-64
2021/10/21 06:49:39;;;;;;;4.03;0.80;;;;;;;11.99;85.98;96074.28;5019349;28;20495;-64
2021/10/21 06:52:05;;;;;;;8.43;1.20;;;;;;;12.57;84.11;96079.75;5010323;28;20049;-61
2021/10/21 06:54:30;;;;;;;5.70;0.75;;;;;;;13.20;79.29;96083.50;5017653;28;20502;-63
2021/10/21 06:56:57;;;;;;;6.95;1.35;;;;;;;13.78;76.90;96094.25;5018197;28;20180;-62
2021/10/21 06:59:22;;;;;;;4.85;1.05;;;;;;;13.82;76.57;96095.03;5010515;28;20709;-64
2021/10/21 07:01:48;;;;;;;4.78;1.02;;;;;;;13.71;76.36;96108.84;5018574;28;20172;-63
2021/10/21 07:04:13;;;;;;;5.65;0.98;;;;;;;13.56;78.09;96121.91;5013709;28;20056;-62
2021/10/21 07:06:38;;;;;;;6.63;1.48;;;;;;;13.13;77.30;96102.00;5018470;28;20042;-63
2021/10/21 07:09:04;;;;;;;7.63;0.82;;;;;;;13.13;76.55;96118.50;5022656;28;20048;-61
2021/10/21 07:11:31;;;;;;;3.10;1.33;;;;;;;12.69;79.22;96133.50;5031954;28;20041;-62
2021/10/21 07:13:57;;;;;;;6.18;0.90;;;;;;;12.50;79.36;96142.94;5029289;28;20148;-62
2021/10/21 07:16:23;;;;;;;8.43;0.88;;;;;;;12.38;81.77;96144.88;5014903;28;20046;-60
2021/10/21 07:18:48;;;;;;;2.90;0.68;;;;;;;12.47;79.42;96158.22;5018997;28;20490;-63
2021/10/21 07:21:17;;;;;;;11.30;1.02;;;;;;;12.37;79.17;96161.75;5014559;28;20096;-62
2021/10/21 07:23:44;;;;;;;6.82;1.08;;;;;;;12.41;78.02;96168.03;5030797;28;20048;-64
2021/10/21 07:26:10;;;;;;;5.78;1.40;;;;;;;12.43;77.76;96182.16;5030244;28;20414;-62
2021/10/21 07:28:35;;;;;;;3.00;0.68;;;;;;;12.45;76.62;96193.53;5021555;28;20069;-64
2021/10/21 07:31:01;;;;;;;3.80;1.15;;;;;;;12.52;76.14;96206.50;5022615;28;20079;-63
2021/10/21 07:33:27;;;;;;;7.90;1.08;;;;;;;12.54;76.02;96217.88;5016834;28;20046;-64
2021/10/21 07:35:54;;;;;;;4.03;1.05;;;;;;;12.43;75.21;96218.66;5022076;28;20048;-63
2021/10/21 07:38:20;;;;;;;8.32;0.88;;;;;;;12.45;76.18;96201.78;5017574;28;20033;-65
2021/10/21 07:40:46;;;;;;;5.10;1.30;;;;;;;12.49;76.64;96230.03;5022583;28;20030;-62
2021/10/21 07:43:13;;;;;;;3.75;0.88;;;;;;;12.91;73.76;96227.69;5015934;28;20132;-64
2021/10/21 07:45:39;;;;;;;6.63;0.85;;;;;;;13.17;73.91;96243.00;5022864;28;20034;-64
2021/10/21 07:48:06;;;;;;;3.85;0.80;;;;;;;12.95;72.00;96243.00;5012843;28;20139;-62
2021/10/21 07:50:33;;;;;;;6.57;0.90;;;;;;;12.90;70.82;96259.91;5022326;28;20045;-63
2021/10/21 07:52:59;;;;;;;6.05;1.58;;;;;;;12.97;70.04;96259.91;5021539;28;20037;-62
2021/10/21 07:55:24;;;;;;;7.15;1.10;;;;;;;12.92;70.57;96268.53;5017393;28;20571;-63
2021/10/21 07:57:50;;;;;;;6.70;1.20;;;;;;;13.13;68.18;96258.72;5020586;28;20045;-63
2021/10/21 08:00:16;;;;;;;8.90;1.27;;;;;;;13.31;68.56;96265.00;5017105;28;20049;-63
2021/10/21 08:02:42;;;;;;;6.28;1.30;;;;;;;13.16;68.61;96274.41;5022139;28;20049;-62
2021/10/21 08:05:09;;;;;;;7.07;1.50;;;;;;;13.17;69.97;96274.03;5014504;28;20037;-61
2021/10/21 08:07:45;;;;;;;10.20;1.20;;;;;;;13.01;68.70;96249.69;5022117;28;20037;-62
2021/10/21 08:10:16;;;;;;;7.32;0.88;;;;;;;12.93;68.16;96281.09;5015260;28;20056;-63
2021/10/21 08:12:42;;;;;;;4.72;0.95;;;;;;;12.93;64.59;96280.34;5019404;28;20056;-61
2021/10/21 08:15:09;;;;;;;3.95;0.82;;;;;;;12.93;65.55;96299.56;5011687;28;20405;-60
2021/10/21 08:17:35;;;;;;;8.70;1.25;;;;;;;12.91;65.72;96299.16;5020656;28;20139;-62
2021/10/21 08:20:00;;;;;;;4.13;1.00;;;;;;;12.93;65.05;96281.09;5019728;28;20045;-63
2021/10/21 08:22:26;;;;;;;6.38;0.93;;;;;;;13.05;63.03;96279.91;5019398;28;20049;-61
2021/10/21 08:24:53;;;;;;;4.43;0.88;;;;;;;13.26;63.19;96301.13;5016839;28;20127;-61
2021/10/21 08:27:18;;;;;;;6.80;1.23;;;;;;;13.19;61.76;96295.63;4998079;28;20115;-59
2021/10/21 08:29:44;;;;;;;4.78;0.90;;;;;;;13.19;61.23;96290.91;5021007;28;20038;-63
2021/10/21 08:32:12;;;;;;;11.43;1.20;;;;;;;13.53;60.73;96309.78;5014348;28;20049;-63
2021/10/21 08:34:38;;;;;;;10.27;1.17;;;;;;;13.54;60.22;96311.34;5019388;28;20384;-61
2021/10/21 08:37:06;;;;;;;8.07;1.08;;;;;;;13.86;58.08;96269.19;5016229;28;20065;-60
2021/10/21 08:39:34;;;;;;;5.57;1.08;;;;;;;13.91;56.92;96301.03;5014577;28;20045;-62
2021/10/21 08:41:59;;;;;;;7.35;1.08;;;;;;;14.16;57.34;96298.19;5018431;28;20556;-64
2021/10/21 08:44:25;;;;;;;7.70;0.90;;;;;;;14.94;54.69;96306.47;5015175;28;20045;-65
2021/10/21 08:46:53;;;;;;;5.95;1.30;;;;;;;14.79;55.01;96305.78;5028822;28;20449;-63
2021/10/21 08:49:19;;;;;;;4.15;0.93;;;;;;;14.59;54.62;96308.25;5014454;28;20037;-65
2021/10/21 08:51:45;;;;;;;7.57;0.90;;;;;;;15.56;53.86;96305.56;5020006;28;20053;-64
2021/10/21 08:54:10;;;;;;;6.63;0.93;;;;;;;15.23;51.97;96313.34;5011775;28;20449;-65
2021/10/21 08:56:37;;;;;;;10.73;1.15;;;;;;;15.10;52.76;96323.28;5020618;28;20045;-64
2021/10/21 08:59:03;;;;;;;6.80;0.77;;;;;;;15.07;51.33;96308.34;5017954;28;20053;-61
2021/10/21 09:04:29;;;;;;;3.28;1.10;;;;;;;15.75;50.15;96326.28;5020715;28;20075;-63
2021/10/21 09:09:29;;;;;;;2.83;1.00;;;;;;;15.78;49.50;96363.34;5007517;28;20053;-63
2021/10/21 09:12:04;;;;;;;3.85;1.35;;;;;;;15.50;49.51;96340.28;5027671;28;20056;-63
2021/10/21 09:14:35;;;;;;;4.57;0.70;;;;;;;15.45;50.04;96351.78;5017235;28;20041;-62
2021/10/21 09:17:05;;;;;;;5.85;1.40;;;;;;;15.56;51.23;96349.72;5015110;28;20749;-62
2021/10/21 09:19:31;;;;;;;3.60;0.90;;;;;;;16.42;49.97;96368.19;5014157;28;20156;-64
2021/10/21 09:21:57;;;;;;;5.28;0.80;;;;;;;16.52;49.40;96360.19;5019836;28;20176;-64
2021/10/21 09:24:35;;;;;;;2.88;0.70;;;;;;;17.17;49.44;96358.09;5013104;28;20945;-65
2021/10/21 09:27:12;;;;;;;8.57;1.48;;;;;;;17.28;47.96;96357.16;5019474;28;20076;-64
2021/10/21 09:29:42;;;;;;;4.82;1.10;;;;;;;17.13;48.07;96357.38;5022926;28;20044;-64
2021/10/21 09:32:10;;;;;;;;;;;;;;;16.81;47.23;96355.81;5013250;28;20052;-63
2021/10/21 09:34:59;;;;;;;5.10;1.10;;;;;;;16.34;48.38;96354.88;5018960;28;20291;-63
2021/10/21 09:37:27;;;;;;;4.65;0.80;;;;;;;16.73;47.54;96375.72;5015272;28;20200;-63
2021/10/21 09:40:00;;;;;;;5.88;1.15;;;;;;;16.47;46.31;96369.69;5020887;28;20077;-62
2021/10/21 09:42:37;;;;;;;3.13;0.70;;;;;;;15.86;46.86;96370.34;5014470;28;20093;-65
2021/10/21 09:45:15;;;;;;;3.22;0.77;;;;;;;16.28;47.71;96381.38;5012413;28;20049;-61
2021/10/21 09:47:45;;;;;;;3.90;0.80;;;;;;;15.76;47.37;96369.28;5015277;28;20042;-61
2021/10/21 09:50:24;;;;;;;4.43;1.33;;;;;;;15.65;48.32;96376.84;5015195;28;20042;-61
2021/10/21 09:53:07;;;;;;;5.07;1.00;;;;;;;15.60;48.64;96378.06;5017388;28;20102;-61
2021/10/21 09:55:39;;;;;;;5.45;1.13;;;;;;;16.31;47.73;96375.81;5018105;28;20053;-60
2021/10/21 09:58:11;;;;;;;8.98;1.00;;;;;;;16.10;45.87;96374.06;5019121;28;20116;-60
2021/10/21 10:00:39;;;;;;;2.92;0.70;;;;;;;16.25;45.78;96364.41;5018145;28;20037;-61
2021/10/21 10:03:13;;;;;;;4.15;1.05;;;;;;;16.09;45.18;96366.19;4997155;28;20111;-58
2021/10/21 10:05:47;;;;;;;4.18;1.02;;;;;;;16.27;45.07;96366.78;5003234;28;20049;-63
2021/10/21 10:08:14;;;;;;;5.70;0.60;;;;;;;15.92;45.24;96365.16;4992948;28;20077;-62
2021/10/21 10:10:41;;;;;;;5.65;0.93;;;;;;;16.43;45.68;96378.03;4999407;28;20048;-62
2021/10/21 10:13:08;;;;;;;3.00;0.63;;;;;;;16.22;45.79;96367.22;4999554;28;20042;-62
2021/10/21 10:15:35;;;;;;;1.48;0.52;;;;;;;16.38;45.58;96372.94;5020351;28;20045;-61
2021/10/21 10:18:02;;;;;;;3.33;0.68;;;;;;;16.63;45.57;96378.19;5020599;28;20369;-64
2021/10/21 10:20:29;;;;;;;4.40;0.60;;;;;;;16.68;43.91;96388.00;5005882;28;20106;-61
2021/10/21 10:22:55;;;;;;;4.38;0.65;;;;;;;17.18;44.55;96383.81;5019821;28;20045;-63
2021/10/21 10:25:22;;;;;;;3.75;0.45;;;;;;;17.04;44.81;96390.31;5013137;28;20133;-63
2021/10/21 10:27:59;;;;;;;4.18;0.90;;;;;;;15.97;46.04;96375.78;5019862;28;20044;-63
2021/10/21 10:30:52;;;;;;;5.78;1.20;;;;;;;15.78;47.63;96393.72;5013078;28;20041;-60
2021/10/21 10:33:32;;;;;;;4.80;0.70;;;;;;;15.45;48.96;96393.97;5000640;28;20041;-62
2021/10/21 10:36:23;;;;;;;6.20;0.80;;;;;;;15.59;48.88;96400.53;5020271;28;20371;-60
2021/10/21 10:38:50;;;;;;;5.45;0.93;;;;;;;16.27;47.21;96399.16;5021860;28;20049;-62
2021/10/21 10:41:40;;;;;;;3.42;0.82;;;;;;;16.59;46.62;96390.50;5024505;28;20100;-61
2021/10/21 10:44:06;;;;;;;2.63;0.63;;;;;;;16.41;45.15;96391.47;5014644;28;20042;-60
2021/10/21 10:46:46;;;;;;;2.40;0.30;;;;;;;16.73;44.57;96376.50;5011387;28;20033;-62
2021/10/21 10:49:38;;;;;;;2.88;0.63;;;;;;;16.56;44.34;96388.56;5013141;28;20041;-62
2021/10/21 10:52:06;;;;;;;6.90;1.20;;;;;;;16.42;45.32;96390.31;5015988;28;20383;-61
2021/10/21 10:54:44;;;;;;;5.85;0.50;;;;;;;15.86;44.95;96384.16;5019603;28;20120;-63
2021/10/21 10:57:14;;;;;;;2.67;0.60;;;;;;;15.62;45.88;96386.72;4995937;28;20045;-62
2021/10/21 10:59:40;;;;;;;;;;;;;;;15.32;48.23;96390.09;5019186;28;20049;-62
2021/10/21 11:02:38;;;;;;;3.60;0.60;;;;;;;15.57;47.79;96387.16;5018458;28;20473;-61
2021/10/21 11:05:06;;;;;;;4.15;0.65;;;;;;;15.20;48.39;96380.34;4987251;28;20034;-60
2021/10/21 11:07:40;;;;;;;6.50;0.85;;;;;;;14.95;49.68;96382.50;5021086;28;20046;-63
2021/10/21 11:10:16;;;;;;;5.32;1.33;;;;;;;14.82;50.90;96393.97;4997501;28;20049;-63
2021/10/21 11:12:42;;;;;;;3.17;1.38;;;;;;;14.95;51.27;96396.28;5022552;28;20049;-62
2021/10/21 11:15:33;;;;;;;4.55;1.15;;;;;;;14.90;51.59;96397.47;5021383;28;20437;-59
2021/10/21 11:18:03;;;;;;;2.95;0.73;;;;;;;14.66;53.51;96397.19;5011681;28;20049;-62
2021/10/21 11:20:31;;;;;;;2.75;0.65;;;;;;;14.86;53.90;96394.72;5021931;28;20045;-64
2021/10/21 11:23:03;;;;;;;5.80;0.85;;;;;;;14.63;54.01;96400.75;5031668;28;20037;-60
2021/10/21 11:25:31;;;;;;;5.38;0.75;;;;;;;14.90;54.46;96397.47;5025458;28;20041;-61
2021/10/21 11:27:57;;;;;;;6.93;1.77;;;;;;;14.80;54.29;96393.59;5022623;28;20033;-64
2021/10/21 11:30:31;;;;;;;5.40;0.80;;;;;;;14.88;54.43;96391.56;5018326;28;20107;-60
2021/10/21 11:33:00;;;;;;;4.68;0.85;;;;;;;14.88;54.14;96397.88;5021798;28;20132;-64
2021/10/21 11:35:29;;;;;;;6.80;1.02;;;;;;;15.01;54.11;96402.94;5015108;28;20042;-63